createdAt,value
2022-10-28T00:00:16.015Z,101482.91
2022-10-28T00:02:44.016Z,101482.94
2022-10-28T00:05:11.880Z,101475.03
2022-10-28T00:07:39.588Z,101480.47
2022-10-28T00:10:08.450Z,101483.22
2022-10-28T00:12:39.359Z,101471.03
2022-10-28T00:15:08.330Z,101471.91
2022-10-28T00:17:37.379Z,101472.97
2022-10-28T00:20:05.738Z,101467.81
2022-10-28T00:22:33.428Z,101462.88
2022-10-28T00:25:01.084Z,101461.53
2022-10-28T00:27:29.716Z,101461.78
2022-10-28T00:29:57.393Z,101451.22
2022-10-28T00:32:25.065Z,101453.63
2022-10-28T00:34:54.064Z,101452.84
2022-10-28T00:37:21.844Z,101453.09
2022-10-28T00:39:49.516Z,101448.22
2022-10-28T00:42:20.359Z,101452.84
2022-10-28T00:44:54.201Z,101448.78
2022-10-28T00:47:32.381Z,101439.53
2022-10-28T00:50:07.324Z,101453.69
2022-10-28T00:52:35.076Z,101466.69
2022-10-28T00:55:03.692Z,101480.22
2022-10-28T00:57:33.132Z,101484.00
2022-10-28T01:00:03.466Z,101478.63
2022-10-28T01:02:34.706Z,101462.88
2022-10-28T01:05:04.272Z,101473.16
2022-10-28T01:07:32.144Z,101473.97
2022-10-28T01:09:59.878Z,101468.25
2022-10-28T01:12:33.502Z,101462.59
2022-10-28T01:15:06.221Z,101461.56
2022-10-28T01:17:50.541Z,101452.00
2022-10-28T01:20:41.023Z,101472.38
2022-10-28T01:23:15.045Z,101460.75
2022-10-28T01:26:09.960Z,101468.53
2022-10-28T01:29:08.909Z,101474.78
2022-10-28T01:31:41.155Z,101469.59
2022-10-28T01:34:20.573Z,101469.91
2022-10-28T01:36:55.909Z,101478.81
2022-10-28T01:39:29.856Z,101477.19
2022-10-28T01:42:01.765Z,101470.88
2022-10-28T01:44:32.468Z,101467.88
2022-10-28T01:47:05.682Z,101460.81
2022-10-28T01:49:39.201Z,101460.56
2022-10-28T01:52:10.340Z,101451.41
2022-10-28T01:54:39.613Z,101457.13
2022-10-28T01:57:07.332Z,101463.56
2022-10-28T01:59:35.752Z,101449.81
2022-10-28T02:02:04.868Z,101461.72
2022-10-28T02:04:32.759Z,101455.69
2022-10-28T02:07:01.721Z,101460.56
2022-10-28T02:09:38.915Z,101449.41
2022-10-28T02:12:27.605Z,101445.66
2022-10-28T02:15:16.065Z,101446.75
2022-10-28T02:17:52.346Z,101448.09
2022-10-28T02:20:29.922Z,101445.91
2022-10-28T02:23:04.515Z,101431.84
2022-10-28T02:25:34.620Z,101434.31
2022-10-28T02:28:06.107Z,101426.16
2022-10-28T02:30:38.241Z,101431.03
2022-10-28T02:33:12.012Z,101438.88
2022-10-28T02:35:40.839Z,101424.50
2022-10-28T02:38:11.671Z,101419.59
2022-10-28T02:40:40.321Z,101410.69
2022-10-28T02:43:10.308Z,101415.56
2022-10-28T02:45:41.236Z,101424.50
2022-10-28T02:48:14.282Z,101415.00
2022-10-28T02:50:46.021Z,101408.81
2022-10-28T02:53:17.134Z,101412.88
2022-10-28T02:55:46.737Z,101390.66
2022-10-28T02:58:14.444Z,101394.41
2022-10-28T03:00:45.049Z,101399.28
2022-10-28T03:03:14.537Z,101394.66
2022-10-28T03:05:42.243Z,101394.06
2022-10-28T03:08:09.929Z,101397.13
2022-10-28T03:10:37.588Z,101394.41
2022-10-28T03:13:05.327Z,101387.38
2022-10-28T03:15:33.002Z,101390.28
2022-10-28T03:18:00.701Z,101386.44
2022-10-28T03:20:31.054Z,101379.72
2022-10-28T03:22:58.885Z,101387.03
2022-10-28T03:25:26.614Z,101380.28
2022-10-28T03:27:54.314Z,101386.53
2022-10-28T03:30:22.037Z,101374.06
2022-10-28T03:32:49.713Z,101383.22
2022-10-28T03:35:17.801Z,101382.63
2022-10-28T03:37:46.832Z,101374.75
2022-10-28T03:40:14.644Z,101361.78
2022-10-28T03:42:42.606Z,101360.19
2022-10-28T03:45:11.533Z,101367.81
2022-10-28T03:47:39.300Z,101372.13
2022-10-28T03:50:07.973Z,101368.84
2022-10-28T03:52:35.713Z,101365.03
2022-10-28T03:55:05.401Z,101365.84
2022-10-28T03:57:33.687Z,101366.66
2022-10-28T04:00:01.402Z,101365.88
2022-10-28T04:02:30.186Z,101370.44
2022-10-28T04:04:58.008Z,101362.53
2022-10-28T04:07:25.760Z,101362.03
2022-10-28T04:09:53.497Z,101361.13
2022-10-28T04:12:22.620Z,101354.59
2022-10-28T04:14:50.388Z,101361.97
2022-10-28T04:17:18.149Z,101370.34
2022-10-28T04:19:45.913Z,101353.81
2022-10-28T04:22:13.738Z,101347.34
2022-10-28T04:24:41.448Z,101337.59
2022-10-28T04:27:09.197Z,101341.09
2022-10-28T04:29:38.342Z,101343.00
2022-10-28T04:32:06.867Z,101340.78
2022-10-28T04:34:34.612Z,101356.81
2022-10-28T04:37:02.380Z,101349.50
2022-10-28T04:39:31.481Z,101349.75
2022-10-28T04:41:59.213Z,101343.31
2022-10-28T04:44:26.991Z,101352.75
2022-10-28T04:46:57.781Z,101351.13
2022-10-28T04:49:25.689Z,101347.28
2022-10-28T04:51:53.507Z,101350.53
2022-10-28T04:54:21.265Z,101363.31
2022-10-28T04:56:49.072Z,101359.97
2022-10-28T04:59:16.868Z,101358.88
2022-10-28T05:01:44.695Z,101367.34
2022-10-28T05:04:13.955Z,101352.19
2022-10-28T05:06:41.778Z,101349.22
2022-10-28T05:09:09.517Z,101343.78
2022-10-28T05:11:37.275Z,101347.03
2022-10-28T05:14:05.185Z,101334.00
2022-10-28T05:16:32.983Z,101335.09
2022-10-28T05:19:00.902Z,101337.75
2022-10-28T05:21:30.047Z,101343.19
2022-10-28T05:23:58.217Z,101335.59
2022-10-28T05:26:26.041Z,101317.97
2022-10-28T05:28:53.778Z,101324.50
2022-10-28T05:31:21.526Z,101326.19
2022-10-28T05:33:49.226Z,101325.34
2022-10-28T05:36:17.202Z,101326.41
2022-10-28T05:38:46.450Z,101319.91
2022-10-28T05:41:14.402Z,101332.38
2022-10-28T05:43:42.162Z,101319.66
2022-10-28T05:46:10.791Z,101317.97
2022-10-28T05:48:38.538Z,101303.88
2022-10-28T05:51:06.526Z,101306.78
2022-10-28T05:53:34.249Z,101306.72
2022-10-28T05:56:05.563Z,101306.25
2022-10-28T05:58:33.318Z,101306.78
2022-10-28T06:01:03.920Z,101297.56
2022-10-28T06:03:31.756Z,101294.91
2022-10-28T06:05:59.796Z,101295.41
2022-10-28T06:08:27.794Z,101296.81
2022-10-28T06:10:54.622Z,101297.06
2022-10-28T06:13:23.923Z,101298.16
2022-10-28T06:15:51.808Z,101292.94
2022-10-28T06:18:19.836Z,101305.13
2022-10-28T06:20:52.049Z,101303.41
2022-10-28T06:23:19.814Z,101305.97
2022-10-28T06:25:47.644Z,101304.31
2022-10-28T06:28:15.445Z,101299.47
2022-10-28T06:30:44.597Z,101301.13
2022-10-28T06:33:12.352Z,101302.50
2022-10-28T06:35:40.074Z,101309.53
2022-10-28T06:38:09.604Z,101308.41
2022-10-28T06:40:37.657Z,101308.97
2022-10-28T06:43:06.586Z,101318.50
2022-10-28T06:45:34.777Z,101316.31
2022-10-28T06:48:07.338Z,101314.16
2022-10-28T06:50:36.688Z,101307.34
2022-10-28T06:53:04.574Z,101316.03
2022-10-28T06:55:32.536Z,101311.69
2022-10-28T06:58:00.648Z,101313.31
2022-10-28T07:03:05.899Z,101331.47
2022-10-28T07:05:34.007Z,101329.56
2022-10-28T07:08:03.117Z,101329.56
2022-10-28T07:10:30.943Z,101330.59
2022-10-28T07:12:58.667Z,101331.59
2022-10-28T07:15:26.383Z,101329.44
2022-10-28T07:17:54.675Z,101325.59
2022-10-28T07:20:25.815Z,101325.16
2022-10-28T07:22:57.045Z,101329.44
2022-10-28T07:25:24.810Z,101338.69
2022-10-28T07:27:53.004Z,101345.81
2022-10-28T07:30:21.018Z,101338.19
2022-10-28T07:32:48.788Z,101337.91
2022-10-28T07:35:16.808Z,101340.66
2022-10-28T07:37:45.902Z,101338.00
2022-10-28T07:40:14.169Z,101338.56
2022-10-28T07:42:41.896Z,101329.34
2022-10-28T07:45:10.264Z,101330.41
2022-10-28T07:47:37.955Z,101328.00
2022-10-28T07:50:07.049Z,101316.88
2022-10-28T07:52:35.292Z,101329.63
2022-10-28T07:55:05.073Z,101319.91
2022-10-28T07:57:32.996Z,101321.78
2022-10-28T08:00:00.708Z,101323.13
2022-10-28T08:02:29.713Z,101326.44
2022-10-28T08:04:57.439Z,101324.28
2022-10-28T08:07:25.161Z,101325.91
2022-10-28T08:09:53.273Z,101323.22
2022-10-28T08:12:22.309Z,101320.03
2022-10-28T08:14:50.696Z,101322.75
2022-10-28T08:17:18.353Z,101316.00
2022-10-28T08:19:46.014Z,101320.09
2022-10-28T08:22:13.735Z,101316.88
2022-10-28T08:24:41.524Z,101313.09
2022-10-28T08:27:09.219Z,101309.91
2022-10-28T08:29:38.391Z,101307.19
2022-10-28T08:32:08.887Z,101309.94
2022-10-28T08:34:39.351Z,101323.53
2022-10-28T08:37:10.379Z,101320.84
2022-10-28T08:39:41.248Z,101317.88
2022-10-28T08:42:23.444Z,101325.22
2022-10-28T08:45:04.928Z,101317.59
2022-10-28T08:47:40.170Z,101310.00
2022-10-28T08:50:13.856Z,101311.09
2022-10-28T08:52:44.948Z,101308.66
2022-10-28T08:55:15.684Z,101317.63
2022-10-28T08:57:45.611Z,101320.09
2022-10-28T09:00:22.010Z,101319.53
2022-10-28T09:02:59.106Z,101324.97
2022-10-28T09:05:28.212Z,101315.72
2022-10-28T09:07:56.743Z,101319.50
2022-10-28T09:10:37.676Z,101320.88
2022-10-28T09:13:12.095Z,101319.22
2022-10-28T09:15:47.729Z,101315.69
2022-10-28T09:18:19.520Z,101307.22
2022-10-28T09:20:53.174Z,101303.97
2022-10-28T09:23:24.319Z,101310.72
2022-10-28T09:26:00.996Z,101304.38
2022-10-28T09:28:40.380Z,101307.41
2022-10-28T09:31:14.422Z,101304.38
2022-10-28T09:33:50.807Z,101298.94
2022-10-28T09:36:22.520Z,101307.38
2022-10-28T09:38:52.670Z,101303.75
2022-10-28T09:41:22.706Z,101294.28
2022-10-28T09:43:53.064Z,101297.72
2022-10-28T09:46:23.377Z,101298.56
2022-10-28T09:48:52.680Z,101306.75
2022-10-28T09:51:28.093Z,101297.06
2022-10-28T09:53:58.194Z,101301.16
2022-10-28T09:56:26.668Z,101298.13
2022-10-28T09:58:55.494Z,101304.69
2022-10-28T10:01:24.734Z,101290.16
2022-10-28T10:03:53.324Z,101296.22
2022-10-28T10:06:25.095Z,101293.06
2022-10-28T10:08:53.149Z,101289.25
2022-10-28T10:11:27.508Z,101296.03
2022-10-28T10:13:56.563Z,101288.06
2022-10-28T10:16:35.638Z,101288.53
2022-10-28T10:19:04.508Z,101294.72
2022-10-28T10:21:43.807Z,101288.47
2022-10-28T10:24:25.197Z,101286.00
2022-10-28T10:26:53.742Z,101291.06
2022-10-28T10:29:21.973Z,101287.91
2022-10-28T10:32:05.149Z,101286.66
2022-10-28T10:34:33.445Z,101283.94
2022-10-28T10:39:37.632Z,101289.44
2022-10-28T10:42:16.342Z,101278.78
2022-10-28T10:44:45.356Z,101288.66
2022-10-28T10:47:23.460Z,101283.13
2022-10-28T10:49:52.038Z,101281.97
2022-10-28T10:52:23.614Z,101279.94
2022-10-28T10:55:00.108Z,101271.81
2022-10-28T10:57:29.988Z,101268.22
2022-10-28T10:59:58.131Z,101273.09
2022-10-28T11:02:29.259Z,101263.41
2022-10-28T11:04:59.718Z,101266.13
2022-10-28T11:07:28.907Z,101251.50
2022-10-28T11:09:56.755Z,101249.88
2022-10-28T11:12:30.158Z,101249.38
2022-10-28T11:14:59.279Z,101251.66
2022-10-28T11:17:29.893Z,101255.66
2022-10-28T11:19:58.756Z,101252.81
2022-10-28T11:22:37.405Z,101251.53
2022-10-28T11:25:34.657Z,101252.38
2022-10-28T11:28:12.364Z,101250.97
2022-10-28T11:30:47.767Z,101250.19
2022-10-28T11:33:35.017Z,101249.47
2022-10-28T11:36:12.776Z,101244.47
2022-10-28T11:38:54.860Z,101241.75
2022-10-28T11:41:32.834Z,101236.13
2022-10-28T11:44:05.021Z,101242.75
2022-10-28T11:46:39.149Z,101234.91
2022-10-28T11:49:44.317Z,101238.22
2022-10-28T11:52:21.830Z,101230.59
2022-10-28T11:55:02.947Z,101235.19
2022-10-28T11:57:39.322Z,101221.19
2022-10-28T12:00:39.650Z,101225.06
2022-10-28T12:03:22.168Z,101217.41
2022-10-28T12:05:55.965Z,101229.31
2022-10-28T12:08:36.061Z,101228.56
2022-10-28T12:11:19.511Z,101229.06
2022-10-28T12:13:52.253Z,101226.03
2022-10-28T12:16:25.992Z,101226.84
2022-10-28T12:18:56.801Z,101223.22
2022-10-28T12:21:32.353Z,101229.81
2022-10-28T12:24:00.586Z,101226.72
2022-10-28T12:26:35.430Z,101230.31
2022-10-28T12:29:05.243Z,101221.94
2022-10-28T12:31:35.691Z,101228.41
2022-10-28T12:34:07.067Z,101219.34
2022-10-28T12:36:39.925Z,101217.03
2022-10-28T12:39:14.062Z,101210.38
2022-10-28T12:41:48.755Z,101202.72
2022-10-28T12:44:20.131Z,101201.09
2022-10-28T12:46:54.478Z,101202.72
2022-10-28T12:49:26.671Z,101200.50
2022-10-28T12:51:56.988Z,101198.88
2022-10-28T12:54:29.645Z,101197.53
2022-10-28T12:57:03.044Z,101189.72
2022-10-28T12:59:33.469Z,101201.69
2022-10-28T13:02:02.611Z,101203.19
2022-10-28T13:04:30.611Z,101202.72
2022-10-28T13:07:27.967Z,101206.09
2022-10-28T13:10:06.035Z,101211.56
2022-10-28T13:12:57.859Z,101200.72
2022-10-28T13:16:25.691Z,101200.25
2022-10-28T13:19:11.211Z,101195.38
2022-10-28T13:22:05.888Z,101194.50
2022-10-28T13:24:42.009Z,101186.38
2022-10-28T13:27:13.463Z,101190.66
2022-10-28T13:29:42.956Z,101186.38
2022-10-28T13:32:32.778Z,101182.53
2022-10-28T13:35:12.442Z,101192.53
2022-10-28T13:37:40.969Z,101192.16
2022-10-28T13:40:22.359Z,101191.56
2022-10-28T13:42:50.548Z,101184.25
2022-10-28T13:45:48.169Z,101183.19
2022-10-28T13:48:47.883Z,101181.09
2022-10-28T13:51:31.533Z,101177.81
2022-10-28T13:53:59.420Z,101171.84
2022-10-28T13:56:39.700Z,101165.06
2022-10-28T13:59:19.813Z,101170.03
2022-10-28T14:02:02.226Z,101162.13
2022-10-28T14:04:37.315Z,101158.34
2022-10-28T14:07:21.554Z,101168.25
2022-10-28T14:09:52.477Z,101172.59
2022-10-28T14:12:26.113Z,101170.47
2022-10-28T14:14:58.351Z,101170.47
2022-10-28T14:17:28.870Z,101168.03
2022-10-28T14:19:56.715Z,101176.50
2022-10-28T14:22:32.926Z,101166.50
2022-10-28T14:25:00.923Z,101162.09
2022-10-28T14:27:32.603Z,101167.28
2022-10-28T14:30:25.934Z,101167.06
2022-10-28T14:33:27.411Z,101170.69
2022-10-28T14:36:08.439Z,101161.88
2022-10-28T14:39:11.333Z,101157.03
2022-10-28T14:41:46.617Z,101147.19
2022-10-28T14:44:31.909Z,101158.13
2022-10-28T14:47:11.736Z,101152.22
2022-10-28T14:49:40.318Z,101156.00
2022-10-28T14:52:10.924Z,101163.09
2022-10-28T14:54:44.829Z,101149.50
2022-10-28T14:57:12.653Z,101148.47
2022-10-28T14:59:44.282Z,101152.31
2022-10-28T15:02:14.145Z,101149.88
2022-10-28T15:04:44.072Z,101162.13
2022-10-28T15:07:14.096Z,101150.41
2022-10-28T15:09:43.285Z,101148.25
2022-10-28T15:12:12.397Z,101146.91
2022-10-28T15:14:42.960Z,101134.66
2022-10-28T15:17:14.081Z,101137.69
2022-10-28T15:19:42.385Z,101134.44
2022-10-28T15:22:21.057Z,101133.09
2022-10-28T15:25:00.056Z,101132.84
2022-10-28T15:27:30.180Z,101140.25
2022-10-28T15:29:59.314Z,101147.31
2022-10-28T15:32:29.740Z,101136.69
2022-10-28T15:34:57.599Z,101147.66
2022-10-28T15:37:27.679Z,101140.53
2022-10-28T15:40:12.891Z,101140.59
2022-10-28T15:42:42.575Z,101135.72
2022-10-28T15:45:19.622Z,101143.91
2022-10-28T15:47:48.256Z,101143.84
2022-10-28T15:50:27.298Z,101143.31
2022-10-28T15:52:57.520Z,101141.09
2022-10-28T15:55:41.698Z,101147.16
2022-10-28T15:58:33.700Z,101145.00
2022-10-28T16:01:02.887Z,101137.09
2022-10-28T16:03:43.570Z,101143.47
2022-10-28T16:06:23.236Z,101138.88
2022-10-28T16:09:00.753Z,101146.81
2022-10-28T16:11:28.780Z,101144.03
2022-10-28T16:13:56.492Z,101141.09
2022-10-28T16:16:26.958Z,101148.47
2022-10-28T16:19:10.351Z,101150.03
2022-10-28T16:21:39.134Z,101141.31
2022-10-28T16:24:07.920Z,101139.59
2022-10-28T16:26:38.122Z,101132.91
2022-10-28T16:29:05.848Z,101142.25
2022-10-28T16:31:35.345Z,101135.63
2022-10-28T16:34:03.066Z,101152.28
2022-10-28T16:36:32.133Z,101158.28
2022-10-28T16:38:59.786Z,101154.44
2022-10-28T16:41:27.687Z,101155.91
2022-10-28T16:43:55.937Z,101153.50
2022-10-28T16:46:23.797Z,101151.66
2022-10-28T16:48:52.867Z,101151.84
2022-10-28T16:51:20.580Z,101151.78
2022-10-28T16:53:49.587Z,101160.91
2022-10-28T16:56:18.024Z,101154.50
2022-10-28T16:58:46.155Z,101160.38
2022-10-28T17:01:22.072Z,101156.59
2022-10-28T17:03:49.875Z,101155.97
2022-10-28T17:06:18.903Z,101154.91
2022-10-28T17:09:02.372Z,101161.41
2022-10-28T17:14:07.342Z,101162.88
2022-10-28T17:16:38.029Z,101171.06
2022-10-28T17:19:08.368Z,101178.94
2022-10-28T17:21:37.427Z,101179.19
2022-10-28T17:24:05.668Z,101186.38
2022-10-28T17:26:33.355Z,101176.78
2022-10-28T17:29:03.053Z,101177.63
2022-10-28T17:31:30.758Z,101188.22
2022-10-28T17:33:58.500Z,101189.38
2022-10-28T17:36:27.198Z,101194.97
2022-10-28T17:38:57.246Z,101192.00
2022-10-28T17:41:25.253Z,101194.16
2022-10-28T17:43:53.954Z,101194.50
2022-10-28T17:46:21.987Z,101195.88
2022-10-28T17:48:50.269Z,101193.72
2022-10-28T17:51:20.046Z,101194.22
2022-10-28T17:53:47.771Z,101196.09
2022-10-28T17:56:16.846Z,101198.03
2022-10-28T17:58:44.556Z,101193.66
2022-10-28T18:01:12.601Z,101197.22
2022-10-28T18:03:40.460Z,101193.97
2022-10-28T18:06:11.321Z,101204.56
2022-10-28T18:08:40.229Z,101202.91
2022-10-28T18:11:09.702Z,101203.84
2022-10-28T18:13:39.875Z,101197.50
2022-10-28T18:16:09.443Z,101207.63
2022-10-28T18:18:42.013Z,101198.91
2022-10-28T18:21:11.203Z,101208.28
2022-10-28T18:23:39.284Z,101194.94
2022-10-28T18:26:08.543Z,101201.91
2022-10-28T18:28:36.894Z,101201.44
2022-10-28T18:31:07.487Z,101205.47
2022-10-28T18:33:36.095Z,101201.91
2022-10-28T18:36:05.677Z,101212.63
2022-10-28T18:38:34.090Z,101210.63
2022-10-28T18:41:02.493Z,101213.03
2022-10-28T18:43:30.370Z,101216.38
2022-10-28T18:46:01.095Z,101222.38
2022-10-28T18:48:33.350Z,101221.53
2022-10-28T18:51:09.301Z,101219.44
2022-10-28T18:53:37.741Z,101219.31
2022-10-28T18:56:06.594Z,101223.72
2022-10-28T18:58:34.771Z,101220.53
2022-10-28T19:01:07.330Z,101227.38
2022-10-28T19:03:36.673Z,101227.56
2022-10-28T19:06:06.146Z,101225.06
2022-10-28T19:08:34.199Z,101219.31
2022-10-28T19:11:03.608Z,101235.00
2022-10-28T19:13:33.434Z,101243.06
2022-10-28T19:16:01.417Z,101240.97
2022-10-28T19:18:35.209Z,101243.06
2022-10-28T19:21:05.471Z,101242.59
2022-10-28T19:23:33.323Z,101236.56
2022-10-28T19:26:03.414Z,101242.13
2022-10-28T19:28:31.519Z,101240.91
2022-10-28T19:31:03.040Z,101242.53
2022-10-28T19:33:31.562Z,101243.97
2022-10-28T19:36:04.831Z,101250.81
2022-10-28T19:38:33.666Z,101251.81
2022-10-28T19:41:06.186Z,101260.63
2022-10-28T19:43:34.186Z,101268.63
2022-10-28T19:46:06.313Z,101274.03
2022-10-28T19:48:34.179Z,101268.84
2022-10-28T19:51:02.582Z,101281.91
2022-10-28T19:53:31.670Z,101277.81
2022-10-28T19:56:00.548Z,101285.31
2022-10-28T19:58:30.469Z,101285.84
2022-10-28T20:00:59.953Z,101290.94
2022-10-28T20:03:31.485Z,101294.22
2022-10-28T20:06:06.725Z,101306.22
2022-10-28T20:08:36.796Z,101307.91
2022-10-28T20:11:06.123Z,101304.34
2022-10-28T20:13:34.683Z,101300.63
2022-10-28T20:16:03.877Z,101306.00
2022-10-28T20:18:32.128Z,101329.47
2022-10-28T20:21:04.960Z,101332.41
2022-10-28T20:23:33.125Z,101322.94
2022-10-28T20:26:03.010Z,101335.25
2022-10-28T20:28:30.762Z,101341.72
2022-10-28T20:31:00.584Z,101347.97
2022-10-28T20:33:30.484Z,101345.56
2022-10-28T20:35:58.475Z,101354.06
2022-10-28T20:38:26.591Z,101354.09
2022-10-28T20:40:55.696Z,101351.38
2022-10-28T20:43:26.061Z,101345.59
2022-10-28T20:45:58.595Z,101362.34
2022-10-28T20:48:27.098Z,101367.19
2022-10-28T20:50:56.318Z,101366.06
2022-10-28T20:53:25.563Z,101371.25
2022-10-28T20:55:54.542Z,101379.94
2022-10-28T20:58:24.943Z,101384.63
2022-10-28T21:00:53.618Z,101390.09
2022-10-28T21:03:21.711Z,101394.41
2022-10-28T21:05:49.570Z,101398.28
2022-10-28T21:08:17.251Z,101400.78
2022-10-28T21:10:44.906Z,101395.59
2022-10-28T21:13:12.628Z,101402.16
2022-10-28T21:15:42.007Z,101405.47
2022-10-28T21:18:09.764Z,101393.41
2022-10-28T21:20:38.731Z,101395.84
2022-10-28T21:23:07.091Z,101399.41
2022-10-28T21:25:35.063Z,101414.94
2022-10-28T21:28:03.914Z,101414.97
2022-10-28T21:30:31.818Z,101417.94
2022-10-28T21:33:00.823Z,101425.56
2022-10-28T21:35:28.503Z,101426.41
2022-10-28T21:37:57.107Z,101428.78
2022-10-28T21:40:25.075Z,101428.81
2022-10-28T21:42:52.745Z,101436.56
2022-10-28T21:45:24.109Z,101432.69
2022-10-28T21:47:55.449Z,101432.94
2022-10-28T21:50:24.818Z,101429.66
2022-10-28T21:52:52.534Z,101434.81
2022-10-28T21:55:26.834Z,101432.13
2022-10-28T21:58:01.528Z,101432.97
2022-10-28T22:00:30.908Z,101432.16
2022-10-28T22:02:58.613Z,101440.53
2022-10-28T22:05:27.701Z,101445.47
2022-10-28T22:07:55.810Z,101440.84
2022-10-28T22:10:23.692Z,101443.03
2022-10-28T22:12:51.386Z,101448.00
2022-10-28T22:15:19.063Z,101457.81
2022-10-28T22:17:46.824Z,101462.22
2022-10-28T22:20:16.239Z,101460.56
2022-10-28T22:22:45.394Z,101449.03
2022-10-28T22:25:13.083Z,101455.34
2022-10-28T22:27:42.423Z,101449.09
2022-10-28T22:30:12.299Z,101455.09
2022-10-28T22:32:40.159Z,101450.25
2022-10-28T22:35:11.308Z,101434.06
2022-10-28T22:37:39.281Z,101437.09
2022-10-28T22:40:10.079Z,101434.09
2022-10-28T22:42:38.156Z,101447.44
2022-10-28T22:45:06.921Z,101446.44
2022-10-28T22:47:35.047Z,101446.34
2022-10-28T22:50:04.290Z,101445.28
2022-10-28T22:52:32.104Z,101448.03
2022-10-28T22:55:00.184Z,101442.28
2022-10-28T22:57:31.327Z,101458.09
2022-10-28T22:59:59.206Z,101457.56
2022-10-28T23:02:27.412Z,101462.22
2022-10-28T23:04:55.548Z,101454.59
2022-10-28T23:07:23.372Z,101453.47
2022-10-28T23:09:54.089Z,101439.00
2022-10-28T23:12:22.114Z,101455.94
2022-10-28T23:14:54.174Z,101451.31
2022-10-28T23:17:21.912Z,101445.19
2022-10-28T23:19:49.673Z,101430.56
2022-10-28T23:22:17.395Z,101423.78
2022-10-28T23:24:47.663Z,101435.00
2022-10-28T23:27:15.408Z,101445.34
2022-10-28T23:29:43.287Z,101458.97
2022-10-28T23:32:12.626Z,101454.59
2022-10-28T23:34:40.424Z,101449.44
2022-10-28T23:37:11.061Z,101442.66
2022-10-28T23:39:38.874Z,101448.94
2022-10-28T23:42:06.813Z,101443.47
2022-10-28T23:44:34.706Z,101447.28
2022-10-28T23:47:03.068Z,101448.03
2022-10-28T23:49:32.301Z,101453.22
2022-10-28T23:52:00.097Z,101456.19
2022-10-28T23:54:27.875Z,101458.38
2022-10-28T23:56:55.616Z,101461.72
2022-10-28T23:59:26.269Z,101472.56
